»·PEaware :: N12683 KSBD-KEMT

N12683 :: KSBD-KEMT

FLIGHT INFORMATION

Flight Status: Arrived
Operator: Privately registered:
United States
More flights under this callsign
Pilot: Anonymous 22620 (22620)
Aircraft: CESSNA 172 SKYHAWK
(C172)
More flights by this aircraft type
Origin: KSBD San Bernardino Intl
United States
Destination: KEMT El Monte
United States
More flights between these airports :: More routes between these airports
Route:
File this flight plan on PilotEdge
Remarks:
Altitude:
(Current/Filed)
2,500ft
Speed:
(Current/Filed)
110kts
Departed: 02-Nov-19 09:23 AM
Arrived: 02-Nov-19 09:53 AM
Distance/Time
Traveled:
40nm/0:30
Distance/Time
To Go:
Arrived

Flight Plot

Page will automatically refresh every two minutes.


Map Options




Map Legend


Flown Route
Filed Route
Departure Airport
Arrival Airport
Navaid (VOR, NDB)
Fix

Horizontal Profiles

Position Reports

Time Latitude Longitude Heading Altitude Ground
Speed
02-Nov-19 09:02 34.102425 -117.224717 93 1160ft 0kts
02-Nov-19 09:03 34.102425 -117.224717 93 1160ft 0kts
02-Nov-19 09:04 34.102425 -117.224717 93 1160ft 0kts
02-Nov-19 09:05 34.102425 -117.224716 93 1160ft 0kts
02-Nov-19 09:06 34.102425 -117.224716 93 1160ft 0kts
02-Nov-19 09:07 34.102425 -117.224716 93 1160ft 0kts
02-Nov-19 09:08 34.102425 -117.224716 93 1160ft 0kts
02-Nov-19 09:09 34.102425 -117.224716 93 1160ft 0kts
02-Nov-19 09:10 34.102425 -117.224716 93 1160ft 0kts
02-Nov-19 09:11 34.102425 -117.224716 93 1160ft 0kts
02-Nov-19 09:12 34.102425 -117.224716 93 1160ft 0kts
02-Nov-19 09:13 34.101678 -117.224818 181 1160ft 6kts
02-Nov-19 09:14 34.099920 -117.226223 263 1160ft 9kts
02-Nov-19 09:15 34.098765 -117.229352 250 1160ft 11kts
02-Nov-19 09:16 34.097654 -117.233099 249 1160ft 12kts
02-Nov-19 09:17 34.096467 -117.237095 249 1160ft 12kts
02-Nov-19 09:18 34.095258 -117.241215 251 1160ft 13kts
02-Nov-19 09:19 34.094012 -117.245419 251 1160ft 13kts
02-Nov-19 09:20 34.092754 -117.249674 250 1160ft 13kts
02-Nov-19 09:21 34.091564 -117.250740 162 1160ft 0kts
02-Nov-19 09:22 34.091347 -117.248245 70 1160ft 42kts
02-Nov-19 09:23 34.098658 -117.225321 70 1744ft 76kts
02-Nov-19 09:24 34.091884 -117.206591 173 2301ft 87kts
02-Nov-19 09:25 34.082949 -117.228300 276 2541ft 99kts
02-Nov-19 09:26 34.078658 -117.259773 266 2687ft 102kts
02-Nov-19 09:27 34.081504 -117.292027 297 2857ft 102kts
02-Nov-19 09:28 34.091636 -117.324530 280 2962ft 105kts
02-Nov-19 09:29 34.093054 -117.360027 271 3004ft 109kts
02-Nov-19 09:30 34.092828 -117.397313 271 3008ft 111kts
02-Nov-19 09:31 34.092421 -117.434544 270 3014ft 112kts
02-Nov-19 09:32 34.092020 -117.471380 270 3013ft 111kts
02-Nov-19 09:33 34.091594 -117.507796 271 3005ft 104kts
02-Nov-19 09:34 34.091218 -117.540550 271 3002ft 100kts
02-Nov-19 09:35 34.090851 -117.571727 271 3005ft 99kts
02-Nov-19 09:36 34.090473 -117.602481 271 3007ft 98kts
02-Nov-19 09:37 34.090103 -117.633174 271 3009ft 97kts
02-Nov-19 09:38 34.089705 -117.663228 270 3011ft 98kts
02-Nov-19 09:39 34.089287 -117.694934 270 3013ft 98kts
02-Nov-19 09:40 34.088873 -117.726274 270 3012ft 98kts
02-Nov-19 09:41 34.088458 -117.756962 270 3016ft 97kts
02-Nov-19 09:42 34.088010 -117.789584 270 3019ft 99kts
02-Nov-19 09:43 34.087536 -117.823268 270 3020ft 99kts
02-Nov-19 09:44 34.087059 -117.856078 270 3021ft 100kts
02-Nov-19 09:46 34.086608 -117.887178 270 3017ft 96kts
02-Nov-19 09:47 34.085729 -117.914936 268 2804ft 91kts
02-Nov-19 09:48 34.087385 -117.943374 291 2338ft 90kts
02-Nov-19 09:49 34.094079 -117.969462 282 1894ft 89kts
02-Nov-19 09:50 34.098838 -117.995288 290 1585ft 78kts
02-Nov-19 09:51 34.103293 -118.017759 263 1139ft 84kts
02-Nov-19 09:52 34.091652 -118.031599 204 396ft 63kts
02-Nov-19 09:53 34.085399 -118.034661 113 298ft 0kts
02-Nov-19 09:54 34.085399 -118.034661 113 298ft 0kts
02-Nov-19 09:55 34.084304 -118.034905 108 298ft 9kts
02-Nov-19 09:56 34.084332 -118.034355 25 298ft 0kts
02-Nov-19 09:57 34.084332 -118.034355 25 298ft 0kts
02-Nov-19 09:58 34.084332 -118.034355 25 298ft 0kts
02-Nov-19 09:59 34.084332 -118.034355 25 298ft 0kts
02-Nov-19 10:00 34.084332 -118.034355 25 298ft 0kts
02-Nov-19 10:01 34.084332 -118.034355 25 298ft 0kts
02-Nov-19 10:02 34.084332 -118.034355 25 298ft 0kts
02-Nov-19 10:03 34.084332 -118.034355 25 298ft 0kts
02-Nov-19 10:04 34.084332 -118.034355 25 298ft 0kts
02-Nov-19 10:04 34.084332 -118.034355 25 298ft 0kts
02-Nov-19 10:06 34.084332 -118.034355 25 298ft 0kts
02-Nov-19 10:07 34.084332 -118.034355 25 298ft 0kts

Navigation Log

Ident Type
Flight plan parsing failed, navigation log unavailable